Serpuhov, Russia
Current Conditions -  °F | °C
As of 2:00 AM on Friday 28 Nov 2014 (Local Time) from UUDD Reporting Station
Haze Haze  
Wind Chill:   Ceiling: 10000
Heat Index:   Visibility: 2mi
Dew Point:   Wind: 2mph
Humidity: 92%   Direction: 110°ESE
Pressure: 30.53"   Gusts: NA
Location:  54.92°N, 37.41°E
Report Text: UUDD 272300Z 11001MPS 3200 BR BKN100 M13/M14 Q1034 82290094 NOSIG
Loading
Personal Weather Stations






























Interactive Weather Map New forecast layout! Learn more

10-Day Weather Forecast

Advertisements
Track Severe Weather on mobile